AirNav   TITAN Aviation Fuels
 
 506 users online  

3F7 Jones Memorial Airport
Bristow, Oklahoma, USA

GOING TO BRISTOW?


FAA INFORMATION EFFECTIVE 01 DECEMBER 2022

Location

FAA Identifier: 3F7
Lat/Long: 35-48-25.3660N 096-25-16.0890W
35-48.422767N 096-25.268150W
35.8070461,-96.4211358
(estimated)
Elevation: 869.6 ft. / 265.1 m (surveyed)
Variation: 05E (2000)
From city: 3 miles SW of BRISTOW, OK
Time zone: UTC -6 (UTC -5 during Daylight Saving Time)
Zip code: 74010

Airport Operations

Airport use: Open to the public
Activation date: 01/1966
Control tower: no
ARTCC: KANSAS CITY CENTER
FSS: MC ALESTER FLIGHT SERVICE STATION
NOTAMs facility: MLC (NOTAM-D service available)
Attendance: UNATNDD
Wind indicator: yes
Segmented circle: no
Lights: MIRL RWY 18/36 ON DUSK - DAWN. INCR INTST - CTAF.
Beacon: white-green (lighted land airport)
Operates sunset to sunrise.

Airport Communications

CTAF: 122.9
WX AWOS-3PT at CUH (19 nm NW): 118.25 ((918) 225-6072)
  • APCH/DEP CTL SVC PRVDD BY KANSAS CITY ARTCC (ZKC) ON FREQS 127.8/319.1(PONCA CITY RCAG).

Nearby radio navigation aids

VOR radial/distance  VOR name  Freq  Var
OKMr276/27.9OKMULGEE VOR/DME114.9008E
TULr225/38.6TULSA VORTAC114.4008E

 
NDB name  Hdg/Dist  Freq  Var  ID
HENRYETTA317/31.326704EHET .... . -
SEMINOLE015/34.427806ESRE ... .-. .

Airport Services

Fuel available: 100LL
100LL:24 HR. AUTOMATED FUEL SERVICE SYSTEM.
Parking: tiedowns
Bottled oxygen: NONE
Bulk oxygen: NONE

Runway Information

Runway 18/36

Dimensions: 4001 x 75 ft. / 1220 x 23 m
Surface: asphalt, in excellent condition
Weight bearing capacity: 
Single wheel: 4.0
Runway edge lights: medium intensity
RUNWAY 18  RUNWAY 36
Latitude: 35-48.752437N35-48.093103N
Longitude: 096-25.266992W096-25.269323W
Elevation: 806.0 ft.869.6 ft.
Traffic pattern: leftleft
Runway heading: 176 magnetic, 181 true356 magnetic, 001 true
Markings: precision, in good conditionprecision, in good condition
Touchdown point: yes, no lightsyes, no lights
Obstructions: none40 ft. tree, marked, 837 ft. from runway, 196 ft. right of centerline, 15:1 slope to clear

Airport Ownership and Management from official FAA records

Ownership: Publicly-owned
Owner: CITY OF BRISTOW
110 W 7TH ST
BRISTOW, OK 74010
Phone 918-367-6244
Manager: ANDREW DONOHUE
24503 S 385TH WEST AVE
BRISTOW, OK 74010
Phone (918) 340-0000

Airport Operational Statistics

Aircraft based on the field: 10
Single engine airplanes: 8
Helicopters: 2
    
Aircraft operations: avg 38/week *
75% transient general aviation
25% local general aviation
* for 12-month period ending 16 June 2020

Additional Remarks

FOR CD CTC KANSAS CITY ARTCC AT 913-254-8508.

Instrument Procedures

NOTE: All procedures below are presented as PDF files. If you need a reader for these files, you should download the free Adobe Reader.

NOT FOR NAVIGATION. Please procure official charts for flight.
FAA instrument procedures published for use from 01 December 2022 at 0901Z to 29 December 2022 at 0900z.

 
IAPs - Instrument Approach Procedures
RNAV (GPS) RWY 18   download (194KB)
RNAV (GPS) RWY 36   download (197KB)
NOTE: Special Take-Off Minimums/Departure Procedures apply   download (391KB)

Other nearby airports with instrument procedures:

KCUH - Cushing Municipal Airport (19 nm NW)
KCQB - Chandler Regional Airport (20 nm W)
O47 - Prague Municipal Airport (24 nm SW)
KOKM - Okmulgee Regional Airport/Paul and Betty Abbott Field (24 nm E)
KRVS - Tulsa Riverside Airport (25 nm NE)
 
Loc | Ops | Rwys | IFR | FBO | Links
Com | Nav | Svcs | Stats | Notes
Area around 3F7 (Jones Memorial Airport)
 
Road maps at: MapQuest Bing Google
 
Aerial photo
WARNING: Photo may not be current or correct
Aerial photo of 3F7 (Jones Memorial Airport)
Photo taken 23-Jul-2007

Do you have a better or more recent aerial photo of Jones Memorial Airport that you would like to share? If so, please send us your photo.

 
Sectional chart

 
Airport distance calculator
Flying to Jones Memorial Airport? Find the distance to fly.

From to 3F7

Sunrise and sunset
Times for 08-Dec-2022
 Local
(UTC-6)
 Zulu
(UTC)
Morning civil twilight06:5612:56
Sunrise07:2413:24
Sunset17:1123:11
Evening civil twilight17:3923:39

Current date and time
Zulu (UTC)  08-Dec-2022 09:03:23
Local (UTC-6)  08-Dec-2022 03:03:23
 
METAR
KCUH 
19nm NW 
080855Z AUTO 00000KT 2 1/2SM RA OVC003 08/08 A3015 RMK AO2 P0024 60038 T00830078
KCQB 
20nm W 
080830Z AUTO 15004KT 3 1/2SM -RA BR OVC003 09/08 A3016 RMK AO2 P0001 T00860084
KOKM 
24nm E 
080855Z AUTO 36003KT 4SM RA OVC002 10/08 A3017 RMK AO2 LTG DSNT E P0010 60017 T00970082
KOWP 
26nm NE 
080855Z AUTO 00000KT 2SM OVC003 10/10 A3017 RMK AO2 P0001 60012 T01010098
KRVS 
26nm NE 
080853Z AUTO 00000KT 3SM RA BR OVC004 09/09 A3017 RMK AO2 RAE01B46 PRESRR SLP220 P0002 60011 T00940089 55010
KSRE 
34nm S 
080855Z AUTO 14003KT 2SM -RA OVC003 10/09 A3015 RMK AO2 P0008
KTUL 
35nm NE 
080853Z 00000KT 4SM BR OVC004 09/09 A3016 RMK AO2 RAE43 PRESRR SLP211 P0001 60012 T00940094 55009
KSNL 
38nm SW 
080855Z AUTO 00000KT 5SM BR OVC003 10/09 A3013 RMK AO2 P0009 60020 T00950085
TAF
KRVS 
26nm NE 
080520Z 0806/0906 09003KT 5SM -RA BR SCT006 OVC090 TEMPO 0806/0810 1 1/2SM +SHRA BR OVC003 FM081000 08002KT 2SM -RA BR OVC003 TEMPO 0810/0814 1SM -RA BR SCT003 OVC050 FM081400 13002KT 3/4SM -DZ BR OVC003 FM082000 19006KT 2SM BR OVC010 FM082300 18005KT P6SM OVC010 FM090200 19003KT 4SM HZ BKN007
NOTAMs
Click for the latest NOTAMs
NOTAMs are issued by the DoD/FAA and will open in a separate window not controlled by AirNav.

 

 
 

Would you like to see your business listed on this page?

 If your business provides an interesting product or service to pilots, flight crews, aircraft, or users of the Jones Memorial Airport, you should consider listing it here.  To start the listing process, click on the button below
 
Add a business
 

Other Pages about Jones Memorial Airport

Update a link
 
Copyright © AirNav, LLC. All rights reserved. Privacy Policy  Contact